sensor_id;sensor_type;location;lat;lon;timestamp;P1;durP1;ratioP1;P2;durP2;ratioP2
19306;SDS011;9788;48.194;16.318;2024-01-10T00:00:11;87.50;;;31.23;;
19306;SDS011;9788;48.194;16.318;2024-01-10T00:02:40;88.53;;;33.20;;
19306;SDS011;9788;48.194;16.318;2024-01-10T00:05:09;79.57;;;28.97;;
19306;SDS011;9788;48.194;16.318;2024-01-10T00:07:38;78.90;;;29.03;;
19306;SDS011;9788;48.194;16.318;2024-01-10T00:10:06;75.33;;;31.00;;
19306;SDS011;9788;48.194;16.318;2024-01-10T00:12:35;81.73;;;31.20;;
19306;SDS011;9788;48.194;16.318;2024-01-10T00:15:04;85.03;;;30.73;;
19306;SDS011;9788;48.194;16.318;2024-01-10T00:17:33;80.43;;;30.33;;
19306;SDS011;9788;48.194;16.318;2024-01-10T00:20:04;81.10;;;32.07;;
19306;SDS011;9788;48.194;16.318;2024-01-10T00:22:39;77.87;;;29.20;;
19306;SDS011;9788;48.194;16.318;2024-01-10T00:25:08;82.03;;;31.20;;
19306;SDS011;9788;48.194;16.318;2024-01-10T00:27:36;82.17;;;30.47;;
19306;SDS011;9788;48.194;16.318;2024-01-10T00:30:05;79.10;;;30.93;;
19306;SDS011;9788;48.194;16.318;2024-01-10T00:32:35;79.87;;;30.57;;
19306;SDS011;9788;48.194;16.318;2024-01-10T00:35:03;95.40;;;32.77;;
19306;SDS011;9788;48.194;16.318;2024-01-10T00:37:39;77.60;;;30.33;;
19306;SDS011;9788;48.194;16.318;2024-01-10T00:40:07;86.30;;;31.47;;
19306;SDS011;9788;48.194;16.318;2024-01-10T00:42:37;78.10;;;31.87;;
19306;SDS011;9788;48.194;16.318;2024-01-10T00:45:05;75.37;;;30.10;;
19306;SDS011;9788;48.194;16.318;2024-01-10T00:47:34;76.03;;;29.03;;
19306;SDS011;9788;48.194;16.318;2024-01-10T00:50:03;75.50;;;30.37;;
19306;SDS011;9788;48.194;16.318;2024-01-10T00:52:31;79.50;;;32.27;;
19306;SDS011;9788;48.194;16.318;2024-01-10T00:55:01;74.03;;;31.13;;
19306;SDS011;9788;48.194;16.318;2024-01-10T00:57:30;89.40;;;32.40;;
19306;SDS011;9788;48.194;16.318;2024-01-10T00:59:58;81.73;;;29.60;;
19306;SDS011;9788;48.194;16.318;2024-01-10T01:02:27;79.93;;;32.57;;
19306;SDS011;9788;48.194;16.318;2024-01-10T01:04:56;73.73;;;30.17;;
19306;SDS011;9788;48.194;16.318;2024-01-10T01:07:24;80.47;;;31.53;;
19306;SDS011;9788;48.194;16.318;2024-01-10T01:09:53;77.63;;;32.80;;
19306;SDS011;9788;48.194;16.318;2024-01-10T01:12:23;87.83;;;31.07;;
19306;SDS011;9788;48.194;16.318;2024-01-10T01:14:51;70.30;;;29.80;;
19306;SDS011;9788;48.194;16.318;2024-01-10T01:17:19;85.20;;;30.97;;
19306;SDS011;9788;48.194;16.318;2024-01-10T01:19:46;84.17;;;32.00;;
19306;SDS011;9788;48.194;16.318;2024-01-10T01:22:15;86.60;;;31.97;;
19306;SDS011;9788;48.194;16.318;2024-01-10T01:24:43;77.27;;;31.83;;
19306;SDS011;9788;48.194;16.318;2024-01-10T01:27:11;92.80;;;33.97;;
19306;SDS011;9788;48.194;16.318;2024-01-10T01:29:42;77.03;;;32.63;;
19306;SDS011;9788;48.194;16.318;2024-01-10T01:32:13;90.53;;;33.87;;
19306;SDS011;9788;48.194;16.318;2024-01-10T01:34:41;86.23;;;30.77;;
19306;SDS011;9788;48.194;16.318;2024-01-10T01:37:15;77.63;;;31.73;;
19306;SDS011;9788;48.194;16.318;2024-01-10T01:39:45;82.60;;;31.53;;
19306;SDS011;9788;48.194;16.318;2024-01-10T01:42:19;74.27;;;30.30;;
19306;SDS011;9788;48.194;16.318;2024-01-10T01:47:33;72.77;;;30.37;;
19306;SDS011;9788;48.194;16.318;2024-01-10T01:50:03;90.23;;;33.73;;
19306;SDS011;9788;48.194;16.318;2024-01-10T01:52:32;78.10;;;31.57;;
19306;SDS011;9788;48.194;16.318;2024-01-10T01:55:02;85.33;;;31.67;;
19306;SDS011;9788;48.194;16.318;2024-01-10T01:57:30;80.50;;;32.50;;
19306;SDS011;9788;48.194;16.318;2024-01-10T01:59:59;86.07;;;32.57;;
19306;SDS011;9788;48.194;16.318;2024-01-10T02:02:29;88.60;;;33.10;;
19306;SDS011;9788;48.194;16.318;2024-01-10T02:04:58;87.00;;;32.70;;
19306;SDS011;9788;48.194;16.318;2024-01-10T02:07:27;90.90;;;32.83;;
19306;SDS011;9788;48.194;16.318;2024-01-10T02:09:55;79.10;;;31.90;;
19306;SDS011;9788;48.194;16.318;2024-01-10T02:12:24;85.37;;;32.70;;
19306;SDS011;9788;48.194;16.318;2024-01-10T02:14:52;83.13;;;33.47;;
19306;SDS011;9788;48.194;16.318;2024-01-10T02:17:20;87.23;;;32.10;;
19306;SDS011;9788;48.194;16.318;2024-01-10T02:19:50;92.63;;;34.60;;
19306;SDS011;9788;48.194;16.318;2024-01-10T02:22:35;90.30;;;33.53;;
19306;SDS011;9788;48.194;16.318;2024-01-10T02:25:06;85.27;;;33.63;;
19306;SDS011;9788;48.194;16.318;2024-01-10T02:27:35;89.40;;;34.87;;
19306;SDS011;9788;48.194;16.318;2024-01-10T02:30:04;91.03;;;35.20;;
19306;SDS011;9788;48.194;16.318;2024-01-10T02:32:34;90.63;;;35.07;;
19306;SDS011;9788;48.194;16.318;2024-01-10T02:35:06;88.90;;;34.77;;
19306;SDS011;9788;48.194;16.318;2024-01-10T02:37:36;88.83;;;35.00;;
19306;SDS011;9788;48.194;16.318;2024-01-10T02:40:06;94.70;;;36.47;;
19306;SDS011;9788;48.194;16.318;2024-01-10T02:42:39;87.17;;;34.70;;
19306;SDS011;9788;48.194;16.318;2024-01-10T02:45:08;96.30;;;36.20;;
19306;SDS011;9788;48.194;16.318;2024-01-10T02:47:36;88.57;;;35.40;;
19306;SDS011;9788;48.194;16.318;2024-01-10T02:50:05;93.83;;;37.13;;
19306;SDS011;9788;48.194;16.318;2024-01-10T02:52:35;94.47;;;34.83;;
19306;SDS011;9788;48.194;16.318;2024-01-10T02:55:07;97.13;;;35.17;;
19306;SDS011;9788;48.194;16.318;2024-01-10T02:57:35;92.60;;;35.63;;
19306;SDS011;9788;48.194;16.318;2024-01-10T03:00:04;91.07;;;34.50;;
19306;SDS011;9788;48.194;16.318;2024-01-10T03:02:37;84.67;;;33.10;;
19306;SDS011;9788;48.194;16.318;2024-01-10T03:05:08;86.43;;;32.63;;
19306;SDS011;9788;48.194;16.318;2024-01-10T03:07:36;85.67;;;35.73;;
19306;SDS011;9788;48.194;16.318;2024-01-10T03:10:06;87.60;;;36.33;;
19306;SDS011;9788;48.194;16.318;2024-01-10T03:12:35;97.00;;;35.17;;
19306;SDS011;9788;48.194;16.318;2024-01-10T03:15:04;95.37;;;36.13;;
19306;SDS011;9788;48.194;16.318;2024-01-10T03:17:33;96.93;;;36.23;;
19306;SDS011;9788;48.194;16.318;2024-01-10T03:20:02;100.90;;;36.40;;
19306;SDS011;9788;48.194;16.318;2024-01-10T03:22:31;97.43;;;36.33;;
19306;SDS011;9788;48.194;16.318;2024-01-10T03:24:59;95.97;;;36.33;;
19306;SDS011;9788;48.194;16.318;2024-01-10T03:27:29;99.87;;;36.07;;
19306;SDS011;9788;48.194;16.318;2024-01-10T03:29:57;102.63;;;37.73;;
19306;SDS011;9788;48.194;16.318;2024-01-10T03:32:26;98.37;;;35.80;;
19306;SDS011;9788;48.194;16.318;2024-01-10T03:34:54;89.83;;;36.03;;
19306;SDS011;9788;48.194;16.318;2024-01-10T03:37:22;89.07;;;34.60;;
19306;SDS011;9788;48.194;16.318;2024-01-10T03:39:51;93.93;;;34.73;;
19306;SDS011;9788;48.194;16.318;2024-01-10T03:42:19;86.73;;;33.77;;
19306;SDS011;9788;48.194;16.318;2024-01-10T03:44:48;99.10;;;35.27;;
19306;SDS011;9788;48.194;16.318;2024-01-10T03:47:16;92.50;;;34.50;;
19306;SDS011;9788;48.194;16.318;2024-01-10T03:49:45;88.47;;;33.37;;
19306;SDS011;9788;48.194;16.318;2024-01-10T03:52:14;86.20;;;33.60;;
19306;SDS011;9788;48.194;16.318;2024-01-10T03:54:42;85.37;;;31.70;;
19306;SDS011;9788;48.194;16.318;2024-01-10T03:57:10;89.20;;;33.33;;
19306;SDS011;9788;48.194;16.318;2024-01-10T03:59:38;84.10;;;31.23;;
19306;SDS011;9788;48.194;16.318;2024-01-10T04:02:08;85.10;;;33.20;;
19306;SDS011;9788;48.194;16.318;2024-01-10T04:04:36;92.50;;;33.50;;
19306;SDS011;9788;48.194;16.318;2024-01-10T04:07:05;88.33;;;32.77;;
19306;SDS011;9788;48.194;16.318;2024-01-10T04:09:35;100.93;;;35.93;;
19306;SDS011;9788;48.194;16.318;2024-01-10T04:12:03;93.27;;;34.97;;
19306;SDS011;9788;48.194;16.318;2024-01-10T04:14:34;91.07;;;32.83;;
19306;SDS011;9788;48.194;16.318;2024-01-10T04:17:02;92.73;;;33.03;;
19306;SDS011;9788;48.194;16.318;2024-01-10T04:19:34;79.87;;;30.87;;
19306;SDS011;9788;48.194;16.318;2024-01-10T04:22:03;76.67;;;31.97;;
19306;SDS011;9788;48.194;16.318;2024-01-10T04:24:31;83.30;;;32.03;;
19306;SDS011;9788;48.194;16.318;2024-01-10T04:27:02;86.87;;;31.87;;
19306;SDS011;9788;48.194;16.318;2024-01-10T04:29:34;79.60;;;31.03;;
19306;SDS011;9788;48.194;16.318;2024-01-10T04:32:05;82.83;;;32.20;;
19306;SDS011;9788;48.194;16.318;2024-01-10T04:34:37;83.27;;;33.00;;
19306;SDS011;9788;48.194;16.318;2024-01-10T04:37:06;89.17;;;34.57;;
19306;SDS011;9788;48.194;16.318;2024-01-10T04:39:35;89.07;;;33.20;;
19306;SDS011;9788;48.194;16.318;2024-01-10T04:42:04;87.60;;;33.40;;
19306;SDS011;9788;48.194;16.318;2024-01-10T04:44:33;94.70;;;35.07;;
19306;SDS011;9788;48.194;16.318;2024-01-10T04:47:01;90.90;;;33.80;;
19306;SDS011;9788;48.194;16.318;2024-01-10T04:49:30;87.07;;;33.17;;
19306;SDS011;9788;48.194;16.318;2024-01-10T04:51:59;104.20;;;36.93;;
19306;SDS011;9788;48.194;16.318;2024-01-10T04:54:30;87.60;;;34.63;;
19306;SDS011;9788;48.194;16.318;2024-01-10T04:56:59;97.57;;;34.20;;
19306;SDS011;9788;48.194;16.318;2024-01-10T04:59:27;110.60;;;36.93;;
19306;SDS011;9788;48.194;16.318;2024-01-10T05:01:55;94.27;;;36.37;;
19306;SDS011;9788;48.194;16.318;2024-01-10T05:04:24;94.87;;;36.10;;
19306;SDS011;9788;48.194;16.318;2024-01-10T05:06:52;87.90;;;35.03;;
19306;SDS011;9788;48.194;16.318;2024-01-10T05:09:21;95.40;;;35.33;;
19306;SDS011;9788;48.194;16.318;2024-01-10T05:11:50;96.30;;;36.90;;
19306;SDS011;9788;48.194;16.318;2024-01-10T05:14:19;96.63;;;35.40;;
19306;SDS011;9788;48.194;16.318;2024-01-10T05:16:48;100.13;;;36.77;;
19306;SDS011;9788;48.194;16.318;2024-01-10T05:19:20;95.40;;;36.30;;
19306;SDS011;9788;48.194;16.318;2024-01-10T05:21:51;103.87;;;35.37;;
19306;SDS011;9788;48.194;16.318;2024-01-10T05:24:22;109.33;;;38.23;;
19306;SDS011;9788;48.194;16.318;2024-01-10T05:26:51;118.00;;;40.57;;
19306;SDS011;9788;48.194;16.318;2024-01-10T05:29:19;107.43;;;38.27;;
19306;SDS011;9788;48.194;16.318;2024-01-10T05:31:50;106.13;;;38.23;;
19306;SDS011;9788;48.194;16.318;2024-01-10T05:34:19;104.47;;;37.10;;
19306;SDS011;9788;48.194;16.318;2024-01-10T05:36:48;91.23;;;35.57;;
19306;SDS011;9788;48.194;16.318;2024-01-10T05:39:16;100.33;;;37.37;;
19306;SDS011;9788;48.194;16.318;2024-01-10T05:41:48;120.83;;;44.00;;
19306;SDS011;9788;48.194;16.318;2024-01-10T05:44:17;107.63;;;40.83;;
19306;SDS011;9788;48.194;16.318;2024-01-10T05:46:45;93.13;;;37.87;;
19306;SDS011;9788;48.194;16.318;2024-01-10T05:49:14;98.83;;;37.07;;
19306;SDS011;9788;48.194;16.318;2024-01-10T05:51:42;98.57;;;36.63;;
19306;SDS011;9788;48.194;16.318;2024-01-10T05:54:11;105.10;;;37.37;;
19306;SDS011;9788;48.194;16.318;2024-01-10T05:56:39;105.10;;;37.00;;
19306;SDS011;9788;48.194;16.318;2024-01-10T05:59:08;104.17;;;37.50;;
19306;SDS011;9788;48.194;16.318;2024-01-10T06:01:38;110.07;;;38.00;;
19306;SDS011;9788;48.194;16.318;2024-01-10T06:04:11;91.60;;;36.07;;
19306;SDS011;9788;48.194;16.318;2024-01-10T06:06:39;91.90;;;36.13;;
19306;SDS011;9788;48.194;16.318;2024-01-10T06:09:08;97.30;;;36.57;;
19306;SDS011;9788;48.194;16.318;2024-01-10T06:11:40;98.97;;;37.57;;
19306;SDS011;9788;48.194;16.318;2024-01-10T06:14:11;94.47;;;35.87;;
19306;SDS011;9788;48.194;16.318;2024-01-10T06:16:39;103.50;;;38.17;;
19306;SDS011;9788;48.194;16.318;2024-01-10T06:19:08;104.33;;;39.70;;
19306;SDS011;9788;48.194;16.318;2024-01-10T06:21:36;94.00;;;36.47;;
19306;SDS011;9788;48.194;16.318;2024-01-10T06:24:06;96.53;;;36.77;;
19306;SDS011;9788;48.194;16.318;2024-01-10T06:26:35;97.57;;;36.17;;
19306;SDS011;9788;48.194;16.318;2024-01-10T06:29:08;90.40;;;36.40;;
19306;SDS011;9788;48.194;16.318;2024-01-10T06:31:38;93.70;;;36.20;;
19306;SDS011;9788;48.194;16.318;2024-01-10T06:34:06;90.40;;;35.27;;
19306;SDS011;9788;48.194;16.318;2024-01-10T06:36:34;90.97;;;36.50;;
19306;SDS011;9788;48.194;16.318;2024-01-10T06:39:02;87.93;;;35.50;;
19306;SDS011;9788;48.194;16.318;2024-01-10T06:41:32;98.47;;;39.03;;
19306;SDS011;9788;48.194;16.318;2024-01-10T06:44:00;102.23;;;37.70;;
19306;SDS011;9788;48.194;16.318;2024-01-10T06:46:30;101.10;;;37.30;;
19306;SDS011;9788;48.194;16.318;2024-01-10T06:49:03;99.20;;;37.27;;
19306;SDS011;9788;48.194;16.318;2024-01-10T06:51:33;98.10;;;37.87;;
19306;SDS011;9788;48.194;16.318;2024-01-10T06:54:02;92.30;;;37.20;;
19306;SDS011;9788;48.194;16.318;2024-01-10T06:56:31;90.67;;;36.77;;
19306;SDS011;9788;48.194;16.318;2024-01-10T06:59:02;95.27;;;37.03;;
19306;SDS011;9788;48.194;16.318;2024-01-10T07:01:32;87.53;;;36.80;;
19306;SDS011;9788;48.194;16.318;2024-01-10T07:04:00;98.77;;;35.20;;
19306;SDS011;9788;48.194;16.318;2024-01-10T07:06:29;99.33;;;37.37;;
19306;SDS011;9788;48.194;16.318;2024-01-10T07:08:58;96.87;;;36.10;;
19306;SDS011;9788;48.194;16.318;2024-01-10T07:11:26;96.53;;;36.63;;
19306;SDS011;9788;48.194;16.318;2024-01-10T07:13:56;92.97;;;36.17;;
19306;SDS011;9788;48.194;16.318;2024-01-10T07:16:25;88.87;;;36.10;;
19306;SDS011;9788;48.194;16.318;2024-01-10T07:18:53;97.23;;;36.27;;
19306;SDS011;9788;48.194;16.318;2024-01-10T07:21:21;89.70;;;36.67;;
19306;SDS011;9788;48.194;16.318;2024-01-10T07:23:54;89.07;;;36.63;;
19306;SDS011;9788;48.194;16.318;2024-01-10T07:26:26;95.13;;;39.10;;
19306;SDS011;9788;48.194;16.318;2024-01-10T07:28:55;91.00;;;36.77;;
19306;SDS011;9788;48.194;16.318;2024-01-10T07:31:30;104.80;;;42.37;;
19306;SDS011;9788;48.194;16.318;2024-01-10T07:33:58;95.23;;;38.43;;
19306;SDS011;9788;48.194;16.318;2024-01-10T07:36:33;90.97;;;36.47;;
19306;SDS011;9788;48.194;16.318;2024-01-10T07:39:10;91.30;;;36.70;;
19306;SDS011;9788;48.194;16.318;2024-01-10T07:41:42;95.47;;;37.17;;
19306;SDS011;9788;48.194;16.318;2024-01-10T07:44:10;94.37;;;35.27;;
19306;SDS011;9788;48.194;16.318;2024-01-10T07:46:39;96.20;;;36.40;;
19306;SDS011;9788;48.194;16.318;2024-01-10T07:49:09;88.13;;;34.80;;
19306;SDS011;9788;48.194;16.318;2024-01-10T07:51:38;92.30;;;36.07;;
19306;SDS011;9788;48.194;16.318;2024-01-10T07:54:06;88.33;;;36.07;;
19306;SDS011;9788;48.194;16.318;2024-01-10T07:56:36;94.47;;;34.97;;
19306;SDS011;9788;48.194;16.318;2024-01-10T07:59:06;93.77;;;37.03;;
19306;SDS011;9788;48.194;16.318;2024-01-10T08:01:43;91.53;;;35.67;;
19306;SDS011;9788;48.194;16.318;2024-01-10T08:04:23;88.97;;;35.37;;
19306;SDS011;9788;48.194;16.318;2024-01-10T08:06:51;84.47;;;35.27;;
19306;SDS011;9788;48.194;16.318;2024-01-10T08:09:20;92.77;;;34.63;;
19306;SDS011;9788;48.194;16.318;2024-01-10T08:11:54;96.57;;;35.13;;
19306;SDS011;9788;48.194;16.318;2024-01-10T08:14:22;89.83;;;35.63;;
19306;SDS011;9788;48.194;16.318;2024-01-10T08:16:51;85.57;;;35.60;;
19306;SDS011;9788;48.194;16.318;2024-01-10T08:19:21;89.53;;;36.57;;
19306;SDS011;9788;48.194;16.318;2024-01-10T08:21:49;92.70;;;35.63;;
19306;SDS011;9788;48.194;16.318;2024-01-10T08:24:17;87.77;;;35.70;;
19306;SDS011;9788;48.194;16.318;2024-01-10T08:26:49;95.80;;;36.77;;
19306;SDS011;9788;48.194;16.318;2024-01-10T08:29:24;91.43;;;36.00;;
19306;SDS011;9788;48.194;16.318;2024-01-10T08:31:56;87.37;;;34.67;;
19306;SDS011;9788;48.194;16.318;2024-01-10T08:34:25;96.80;;;38.00;;
19306;SDS011;9788;48.194;16.318;2024-01-10T08:36:53;97.83;;;36.27;;
19306;SDS011;9788;48.194;16.318;2024-01-10T08:39:22;101.27;;;37.23;;
19306;SDS011;9788;48.194;16.318;2024-01-10T08:41:52;96.37;;;38.07;;
19306;SDS011;9788;48.194;16.318;2024-01-10T08:44:21;88.43;;;35.80;;
19306;SDS011;9788;48.194;16.318;2024-01-10T08:46:50;95.57;;;37.07;;
19306;SDS011;9788;48.194;16.318;2024-01-10T08:49:19;96.97;;;38.97;;
19306;SDS011;9788;48.194;16.318;2024-01-10T08:51:47;110.07;;;38.83;;
19306;SDS011;9788;48.194;16.318;2024-01-10T08:54:15;89.70;;;36.83;;
19306;SDS011;9788;48.194;16.318;2024-01-10T08:56:46;99.57;;;37.43;;
19306;SDS011;9788;48.194;16.318;2024-01-10T08:59:14;95.93;;;37.83;;
19306;SDS011;9788;48.194;16.318;2024-01-10T09:01:45;85.67;;;35.07;;
19306;SDS011;9788;48.194;16.318;2024-01-10T09:04:13;89.03;;;37.40;;
19306;SDS011;9788;48.194;16.318;2024-01-10T09:06:45;95.70;;;37.27;;
19306;SDS011;9788;48.194;16.318;2024-01-10T09:09:13;86.43;;;35.03;;
19306;SDS011;9788;48.194;16.318;2024-01-10T09:11:50;87.70;;;35.63;;
19306;SDS011;9788;48.194;16.318;2024-01-10T09:14:19;89.07;;;35.50;;
19306;SDS011;9788;48.194;16.318;2024-01-10T09:16:49;87.63;;;36.33;;
19306;SDS011;9788;48.194;16.318;2024-01-10T09:19:18;92.80;;;36.77;;
19306;SDS011;9788;48.194;16.318;2024-01-10T09:21:51;95.60;;;36.40;;
19306;SDS011;9788;48.194;16.318;2024-01-10T09:24:21;84.53;;;36.50;;
19306;SDS011;9788;48.194;16.318;2024-01-10T09:26:55;79.40;;;34.33;;
19306;SDS011;9788;48.194;16.318;2024-01-10T09:29:23;92.57;;;36.40;;
19306;SDS011;9788;48.194;16.318;2024-01-10T09:31:55;103.20;;;38.00;;
19306;SDS011;9788;48.194;16.318;2024-01-10T09:34:23;154.67;;;41.43;;
19306;SDS011;9788;48.194;16.318;2024-01-10T09:36:53;87.07;;;37.33;;
19306;SDS011;9788;48.194;16.318;2024-01-10T09:39:21;90.33;;;36.80;;
19306;SDS011;9788;48.194;16.318;2024-01-10T09:41:50;78.13;;;35.47;;
19306;SDS011;9788;48.194;16.318;2024-01-10T09:44:19;75.93;;;35.50;;
19306;SDS011;9788;48.194;16.318;2024-01-10T09:46:50;81.27;;;37.47;;
19306;SDS011;9788;48.194;16.318;2024-01-10T09:49:21;75.03;;;34.80;;
19306;SDS011;9788;48.194;16.318;2024-01-10T09:51:50;68.70;;;33.67;;
19306;SDS011;9788;48.194;16.318;2024-01-10T09:54:24;72.43;;;34.13;;
19306;SDS011;9788;48.194;16.318;2024-01-10T09:56:54;76.30;;;35.23;;
19306;SDS011;9788;48.194;16.318;2024-01-10T09:59:24;70.03;;;34.23;;
19306;SDS011;9788;48.194;16.318;2024-01-10T10:01:52;71.33;;;33.27;;
19306;SDS011;9788;48.194;16.318;2024-01-10T10:04:27;74.37;;;34.90;;
19306;SDS011;9788;48.194;16.318;2024-01-10T10:06:58;70.53;;;34.13;;
19306;SDS011;9788;48.194;16.318;2024-01-10T10:09:29;74.03;;;34.60;;
19306;SDS011;9788;48.194;16.318;2024-01-10T10:11:58;68.37;;;33.10;;
19306;SDS011;9788;48.194;16.318;2024-01-10T10:14:28;67.93;;;34.17;;
19306;SDS011;9788;48.194;16.318;2024-01-10T10:17:00;74.63;;;34.73;;
19306;SDS011;9788;48.194;16.318;2024-01-10T10:19:44;69.60;;;34.43;;
19306;SDS011;9788;48.194;16.318;2024-01-10T10:22:14;72.00;;;33.30;;
19306;SDS011;9788;48.194;16.318;2024-01-10T10:24:42;75.87;;;33.73;;
19306;SDS011;9788;48.194;16.318;2024-01-10T10:27:16;73.33;;;34.93;;
19306;SDS011;9788;48.194;16.318;2024-01-10T10:29:44;71.43;;;33.50;;
19306;SDS011;9788;48.194;16.318;2024-01-10T10:32:14;70.33;;;32.90;;
19306;SDS011;9788;48.194;16.318;2024-01-10T10:34:46;73.23;;;34.07;;
19306;SDS011;9788;48.194;16.318;2024-01-10T10:37:15;69.97;;;32.97;;
19306;SDS011;9788;48.194;16.318;2024-01-10T10:39:44;65.87;;;33.00;;
19306;SDS011;9788;48.194;16.318;2024-01-10T10:42:13;66.50;;;32.43;;
19306;SDS011;9788;48.194;16.318;2024-01-10T10:44:46;74.20;;;34.13;;
19306;SDS011;9788;48.194;16.318;2024-01-10T10:47:17;70.10;;;34.83;;
19306;SDS011;9788;48.194;16.318;2024-01-10T10:49:50;62.33;;;33.03;;
19306;SDS011;9788;48.194;16.318;2024-01-10T10:52:21;61.97;;;32.90;;
19306;SDS011;9788;48.194;16.318;2024-01-10T10:54:50;66.83;;;33.60;;
19306;SDS011;9788;48.194;16.318;2024-01-10T10:57:21;68.60;;;33.03;;
19306;SDS011;9788;48.194;16.318;2024-01-10T10:59:53;67.03;;;33.00;;
19306;SDS011;9788;48.194;16.318;2024-01-10T11:02:23;66.27;;;30.87;;
19306;SDS011;9788;48.194;16.318;2024-01-10T11:04:58;64.33;;;31.00;;
19306;SDS011;9788;48.194;16.318;2024-01-10T11:07:28;63.27;;;31.87;;
19306;SDS011;9788;48.194;16.318;2024-01-10T11:09:56;67.97;;;31.13;;
19306;SDS011;9788;48.194;16.318;2024-01-10T11:15:20;67.13;;;30.27;;
19306;SDS011;9788;48.194;16.318;2024-01-10T11:18:14;68.17;;;33.47;;
19306;SDS011;9788;48.194;16.318;2024-01-10T11:20:59;77.23;;;31.60;;
19306;SDS011;9788;48.194;16.318;2024-01-10T11:23:47;72.37;;;31.70;;
19306;SDS011;9788;48.194;16.318;2024-01-10T11:26:18;61.97;;;29.50;;
19306;SDS011;9788;48.194;16.318;2024-01-10T11:28:47;67.37;;;30.80;;
19306;SDS011;9788;48.194;16.318;2024-01-10T11:31:18;67.17;;;31.53;;
19306;SDS011;9788;48.194;16.318;2024-01-10T11:33:55;61.30;;;29.57;;
19306;SDS011;9788;48.194;16.318;2024-01-10T11:36:27;47.70;;;22.07;;
19306;SDS011;9788;48.194;16.318;2024-01-10T11:38:57;41.57;;;19.77;;
19306;SDS011;9788;48.194;16.318;2024-01-10T11:41:29;43.00;;;19.87;;
19306;SDS011;9788;48.194;16.318;2024-01-10T11:46:56;47.37;;;21.13;;
19306;SDS011;9788;48.194;16.318;2024-01-10T11:49:27;37.67;;;17.27;;
19306;SDS011;9788;48.194;16.318;2024-01-10T11:51:57;36.30;;;18.23;;
19306;SDS011;9788;48.194;16.318;2024-01-10T11:54:37;34.07;;;17.10;;
19306;SDS011;9788;48.194;16.318;2024-01-10T11:57:09;35.47;;;15.87;;
19306;SDS011;9788;48.194;16.318;2024-01-10T11:59:40;38.63;;;17.20;;
19306;SDS011;9788;48.194;16.318;2024-01-10T12:02:10;32.90;;;16.60;;
19306;SDS011;9788;48.194;16.318;2024-01-10T12:04:40;38.33;;;17.30;;
19306;SDS011;9788;48.194;16.318;2024-01-10T12:07:16;39.53;;;19.90;;
19306;SDS011;9788;48.194;16.318;2024-01-10T12:09:46;32.00;;;16.00;;
19306;SDS011;9788;48.194;16.318;2024-01-10T12:12:16;32.27;;;17.03;;
19306;SDS011;9788;48.194;16.318;2024-01-10T12:14:44;32.00;;;16.93;;
19306;SDS011;9788;48.194;16.318;2024-01-10T12:17:13;30.00;;;16.37;;
19306;SDS011;9788;48.194;16.318;2024-01-10T12:19:43;34.73;;;17.70;;
19306;SDS011;9788;48.194;16.318;2024-01-10T12:22:17;34.73;;;17.13;;
19306;SDS011;9788;48.194;16.318;2024-01-10T12:24:47;36.00;;;18.53;;
19306;SDS011;9788;48.194;16.318;2024-01-10T12:27:19;33.77;;;17.40;;
19306;SDS011;9788;48.194;16.318;2024-01-10T12:29:50;32.83;;;17.33;;
19306;SDS011;9788;48.194;16.318;2024-01-10T12:32:20;39.40;;;18.57;;
19306;SDS011;9788;48.194;16.318;2024-01-10T12:34:54;35.53;;;17.93;;
19306;SDS011;9788;48.194;16.318;2024-01-10T12:37:30;40.80;;;19.23;;
19306;SDS011;9788;48.194;16.318;2024-01-10T12:39:59;41.93;;;19.57;;
19306;SDS011;9788;48.194;16.318;2024-01-10T12:42:30;44.23;;;21.93;;
19306;SDS011;9788;48.194;16.318;2024-01-10T12:44:58;44.77;;;21.17;;
19306;SDS011;9788;48.194;16.318;2024-01-10T12:47:28;43.83;;;20.70;;
19306;SDS011;9788;48.194;16.318;2024-01-10T12:49:57;45.13;;;22.57;;
19306;SDS011;9788;48.194;16.318;2024-01-10T12:52:29;47.83;;;22.73;;
19306;SDS011;9788;48.194;16.318;2024-01-10T12:54:58;44.73;;;21.90;;
19306;SDS011;9788;48.194;16.318;2024-01-10T12:57:33;48.00;;;23.43;;
19306;SDS011;9788;48.194;16.318;2024-01-10T13:00:02;52.50;;;23.47;;
19306;SDS011;9788;48.194;16.318;2024-01-10T13:02:33;49.27;;;22.80;;
19306;SDS011;9788;48.194;16.318;2024-01-10T13:05:09;45.37;;;22.70;;
19306;SDS011;9788;48.194;16.318;2024-01-10T13:07:45;49.30;;;22.60;;
19306;SDS011;9788;48.194;16.318;2024-01-10T13:10:14;45.60;;;22.10;;
19306;SDS011;9788;48.194;16.318;2024-01-10T13:12:45;43.50;;;23.20;;
19306;SDS011;9788;48.194;16.318;2024-01-10T13:15:14;47.97;;;23.47;;
19306;SDS011;9788;48.194;16.318;2024-01-10T13:17:45;50.40;;;23.90;;
19306;SDS011;9788;48.194;16.318;2024-01-10T13:20:14;42.60;;;21.87;;
19306;SDS011;9788;48.194;16.318;2024-01-10T13:22:44;45.47;;;22.27;;
19306;SDS011;9788;48.194;16.318;2024-01-10T13:25:12;44.27;;;23.00;;
19306;SDS011;9788;48.194;16.318;2024-01-10T13:27:41;50.00;;;23.47;;
19306;SDS011;9788;48.194;16.318;2024-01-10T13:30:10;45.83;;;22.40;;
19306;SDS011;9788;48.194;16.318;2024-01-10T13:32:39;50.17;;;23.60;;
19306;SDS011;9788;48.194;16.318;2024-01-10T13:35:08;43.03;;;22.33;;
19306;SDS011;9788;48.194;16.318;2024-01-10T13:37:36;46.40;;;23.33;;
19306;SDS011;9788;48.194;16.318;2024-01-10T13:40:06;48.67;;;23.97;;
19306;SDS011;9788;48.194;16.318;2024-01-10T13:42:37;52.03;;;23.03;;
19306;SDS011;9788;48.194;16.318;2024-01-10T13:45:07;42.20;;;22.00;;
19306;SDS011;9788;48.194;16.318;2024-01-10T13:47:37;45.97;;;23.07;;
19306;SDS011;9788;48.194;16.318;2024-01-10T13:50:07;52.43;;;22.93;;
19306;SDS011;9788;48.194;16.318;2024-01-10T13:52:36;45.70;;;23.17;;
19306;SDS011;9788;48.194;16.318;2024-01-10T13:55:07;43.13;;;20.97;;
19306;SDS011;9788;48.194;16.318;2024-01-10T13:57:36;48.07;;;22.50;;
19306;SDS011;9788;48.194;16.318;2024-01-10T14:00:05;47.57;;;22.03;;
19306;SDS011;9788;48.194;16.318;2024-01-10T14:02:41;47.33;;;22.33;;
19306;SDS011;9788;48.194;16.318;2024-01-10T14:05:10;46.13;;;21.87;;
19306;SDS011;9788;48.194;16.318;2024-01-10T14:07:38;45.90;;;20.80;;
19306;SDS011;9788;48.194;16.318;2024-01-10T14:10:12;43.27;;;20.07;;
19306;SDS011;9788;48.194;16.318;2024-01-10T14:12:40;44.50;;;19.77;;
19306;SDS011;9788;48.194;16.318;2024-01-10T14:15:09;43.20;;;19.53;;
19306;SDS011;9788;48.194;16.318;2024-01-10T14:17:39;44.40;;;20.63;;
19306;SDS011;9788;48.194;16.318;2024-01-10T14:20:09;41.10;;;19.80;;
19306;SDS011;9788;48.194;16.318;2024-01-10T14:22:40;37.43;;;18.40;;
19306;SDS011;9788;48.194;16.318;2024-01-10T14:25:09;36.83;;;19.57;;
19306;SDS011;9788;48.194;16.318;2024-01-10T14:27:41;43.77;;;20.13;;
19306;SDS011;9788;48.194;16.318;2024-01-10T14:30:10;43.17;;;19.47;;
19306;SDS011;9788;48.194;16.318;2024-01-10T14:32:40;37.97;;;19.30;;
19306;SDS011;9788;48.194;16.318;2024-01-10T14:35:10;41.70;;;20.77;;
19306;SDS011;9788;48.194;16.318;2024-01-10T14:37:40;40.60;;;19.63;;
19306;SDS011;9788;48.194;16.318;2024-01-10T14:40:09;40.53;;;20.37;;
19306;SDS011;9788;48.194;16.318;2024-01-10T14:42:38;43.17;;;21.03;;
19306;SDS011;9788;48.194;16.318;2024-01-10T14:45:08;44.30;;;19.57;;